sensor_id;sensor_type;location;lat;lon;timestamp;temperature;humidity
40434;DHT22;26146;51.114;5.654;2023-03-23T00:03:28;14.10;99.90
40434;DHT22;26146;51.114;5.654;2023-03-23T00:07:29;14.10;99.90
40434;DHT22;26146;51.114;5.654;2023-03-23T00:11:31;14.00;99.90
40434;DHT22;26146;51.114;5.654;2023-03-23T00:15:32;14.10;99.90
40434;DHT22;26146;51.114;5.654;2023-03-23T00:19:33;14.10;99.90
40434;DHT22;26146;51.114;5.654;2023-03-23T00:23:45;14.10;99.90
40434;DHT22;26146;51.114;5.654;2023-03-23T00:27:46;14.10;99.90
40434;DHT22;26146;51.114;5.654;2023-03-23T00:31:48;14.10;99.90
40434;DHT22;26146;51.114;5.654;2023-03-23T00:35:50;14.10;99.90
40434;DHT22;26146;51.114;5.654;2023-03-23T00:39:53;14.00;99.90
40434;DHT22;26146;51.114;5.654;2023-03-23T00:43:58;14.10;99.90
40434;DHT22;26146;51.114;5.654;2023-03-23T00:48:01;14.10;99.90
40434;DHT22;26146;51.114;5.654;2023-03-23T00:52:04;14.20;99.90
40434;DHT22;26146;51.114;5.654;2023-03-23T00:56:08;14.10;99.90
40434;DHT22;26146;51.114;5.654;2023-03-23T01:00:12;14.00;99.90
40434;DHT22;26146;51.114;5.654;2023-03-23T01:04:15;14.10;99.90
40434;DHT22;26146;51.114;5.654;2023-03-23T01:08:17;14.10;99.90
40434;DHT22;26146;51.114;5.654;2023-03-23T01:12:19;14.00;99.90
40434;DHT22;26146;51.114;5.654;2023-03-23T01:16:21;14.10;99.90
40434;DHT22;26146;51.114;5.654;2023-03-23T01:20:23;14.10;99.90
40434;DHT22;26146;51.114;5.654;2023-03-23T01:24:24;14.10;99.90
40434;DHT22;26146;51.114;5.654;2023-03-23T01:28:25;14.10;99.90
40434;DHT22;26146;51.114;5.654;2023-03-23T01:32:27;14.10;99.90
40434;DHT22;26146;51.114;5.654;2023-03-23T01:36:29;14.30;99.90
40434;DHT22;26146;51.114;5.654;2023-03-23T01:40:35;14.10;99.90
40434;DHT22;26146;51.114;5.654;2023-03-23T01:48:38;14.00;99.90
40434;DHT22;26146;51.114;5.654;2023-03-23T01:52:39;14.10;99.90
40434;DHT22;26146;51.114;5.654;2023-03-23T01:56:46;14.10;99.90
40434;DHT22;26146;51.114;5.654;2023-03-23T02:00:52;14.00;99.90
40434;DHT22;26146;51.114;5.654;2023-03-23T02:04:58;14.10;99.90
40434;DHT22;26146;51.114;5.654;2023-03-23T02:09:01;14.00;99.90
40434;DHT22;26146;51.114;5.654;2023-03-23T02:13:06;14.00;99.90
40434;DHT22;26146;51.114;5.654;2023-03-23T02:21:44;14.00;99.90
40434;DHT22;26146;51.114;5.654;2023-03-23T02:43:11;14.00;99.90
40434;DHT22;26146;51.114;5.654;2023-03-23T02:47:24;13.90;99.90
40434;DHT22;26146;51.114;5.654;2023-03-23T02:51:26;13.90;99.90
40434;DHT22;26146;51.114;5.654;2023-03-23T02:55:28;14.00;99.90
40434;DHT22;26146;51.114;5.654;2023-03-23T02:59:30;13.90;99.90
40434;DHT22;26146;51.114;5.654;2023-03-23T03:03:32;14.00;99.90
40434;DHT22;26146;51.114;5.654;2023-03-23T03:11:51;14.00;99.90
40434;DHT22;26146;51.114;5.654;2023-03-23T03:16:12;14.00;99.90
40434;DHT22;26146;51.114;5.654;2023-03-23T03:20:16;14.00;99.90
40434;DHT22;26146;51.114;5.654;2023-03-23T03:24:19;14.10;99.90
40434;DHT22;26146;51.114;5.654;2023-03-23T03:28:21;14.00;99.90
40434;DHT22;26146;51.114;5.654;2023-03-23T03:32:27;13.90;99.90
40434;DHT22;26146;51.114;5.654;2023-03-23T03:36:33;14.00;99.90
40434;DHT22;26146;51.114;5.654;2023-03-23T03:40:35;14.00;99.90
40434;DHT22;26146;51.114;5.654;2023-03-23T03:44:36;14.10;99.90
40434;DHT22;26146;51.114;5.654;2023-03-23T03:48:38;13.90;99.90
40434;DHT22;26146;51.114;5.654;2023-03-23T03:52:39;13.90;99.90
40434;DHT22;26146;51.114;5.654;2023-03-23T03:56:40;13.90;99.90
40434;DHT22;26146;51.114;5.654;2023-03-23T04:00:42;14.00;99.90
40434;DHT22;26146;51.114;5.654;2023-03-23T04:04:43;13.90;99.90
40434;DHT22;26146;51.114;5.654;2023-03-23T04:08:44;14.00;99.90
40434;DHT22;26146;51.114;5.654;2023-03-23T04:12:47;14.10;99.90
40434;DHT22;26146;51.114;5.654;2023-03-23T04:16:48;14.10;99.90
40434;DHT22;26146;51.114;5.654;2023-03-23T04:20:52;14.10;99.90
40434;DHT22;26146;51.114;5.654;2023-03-23T04:24:53;14.10;99.90
40434;DHT22;26146;51.114;5.654;2023-03-23T04:28:55;14.00;99.90
40434;DHT22;26146;51.114;5.654;2023-03-23T04:32:58;14.00;99.90
40434;DHT22;26146;51.114;5.654;2023-03-23T04:37:01;14.00;99.90
40434;DHT22;26146;51.114;5.654;2023-03-23T04:41:02;14.00;99.90
40434;DHT22;26146;51.114;5.654;2023-03-23T04:45:06;14.00;99.90
40434;DHT22;26146;51.114;5.654;2023-03-23T04:49:08;13.90;99.90
40434;DHT22;26146;51.114;5.654;2023-03-23T04:53:09;13.90;99.90
40434;DHT22;26146;51.114;5.654;2023-03-23T04:57:11;13.90;99.90
40434;DHT22;26146;51.114;5.654;2023-03-23T05:01:13;13.80;99.90
40434;DHT22;26146;51.114;5.654;2023-03-23T05:05:20;13.70;99.90
40434;DHT22;26146;51.114;5.654;2023-03-23T05:09:21;13.80;99.90
40434;DHT22;26146;51.114;5.654;2023-03-23T05:13:22;13.90;99.90
40434;DHT22;26146;51.114;5.654;2023-03-23T05:17:26;13.90;99.90
40434;DHT22;26146;51.114;5.654;2023-03-23T05:21:27;13.80;99.90
40434;DHT22;26146;51.114;5.654;2023-03-23T05:25:28;13.90;99.90
40434;DHT22;26146;51.114;5.654;2023-03-23T05:29:29;13.80;99.90
40434;DHT22;26146;51.114;5.654;2023-03-23T05:33:31;13.80;99.90
40434;DHT22;26146;51.114;5.654;2023-03-23T05:37:31;13.80;99.90
40434;DHT22;26146;51.114;5.654;2023-03-23T05:41:33;13.80;99.90
40434;DHT22;26146;51.114;5.654;2023-03-23T05:45:34;13.70;99.90
40434;DHT22;26146;51.114;5.654;2023-03-23T05:49:35;13.80;99.90
40434;DHT22;26146;51.114;5.654;2023-03-23T05:53:37;13.70;99.90
40434;DHT22;26146;51.114;5.654;2023-03-23T05:57:40;13.70;99.90
40434;DHT22;26146;51.114;5.654;2023-03-23T06:01:41;13.80;99.90
40434;DHT22;26146;51.114;5.654;2023-03-23T06:05:44;13.80;99.90
40434;DHT22;26146;51.114;5.654;2023-03-23T06:09:45;13.70;99.90
40434;DHT22;26146;51.114;5.654;2023-03-23T06:13:46;13.80;99.90
40434;DHT22;26146;51.114;5.654;2023-03-23T06:17:48;13.90;99.90
40434;DHT22;26146;51.114;5.654;2023-03-23T06:21:51;13.80;99.90
40434;DHT22;26146;51.114;5.654;2023-03-23T06:26:02;14.10;99.90
40434;DHT22;26146;51.114;5.654;2023-03-23T06:30:05;14.00;99.90
40434;DHT22;26146;51.114;5.654;2023-03-23T06:34:06;14.10;99.90
40434;DHT22;26146;51.114;5.654;2023-03-23T06:38:07;14.10;99.90
40434;DHT22;26146;51.114;5.654;2023-03-23T06:42:12;14.20;99.90
40434;DHT22;26146;51.114;5.654;2023-03-23T06:46:13;14.20;99.90
40434;DHT22;26146;51.114;5.654;2023-03-23T06:50:15;14.30;99.90
40434;DHT22;26146;51.114;5.654;2023-03-23T06:54:17;14.30;99.90
40434;DHT22;26146;51.114;5.654;2023-03-23T06:58:17;14.30;99.90
40434;DHT22;26146;51.114;5.654;2023-03-23T07:02:18;14.50;99.90
40434;DHT22;26146;51.114;5.654;2023-03-23T07:06:19;14.60;99.90
40434;DHT22;26146;51.114;5.654;2023-03-23T07:10:21;14.60;99.90
40434;DHT22;26146;51.114;5.654;2023-03-23T07:14:22;14.60;99.90
40434;DHT22;26146;51.114;5.654;2023-03-23T07:18:23;14.50;99.90
40434;DHT22;26146;51.114;5.654;2023-03-23T07:22:24;14.50;99.90
40434;DHT22;26146;51.114;5.654;2023-03-23T07:26:25;14.40;99.90
40434;DHT22;26146;51.114;5.654;2023-03-23T07:30:27;14.60;99.90
40434;DHT22;26146;51.114;5.654;2023-03-23T07:34:32;14.80;99.90
40434;DHT22;26146;51.114;5.654;2023-03-23T07:38:33;14.80;99.90
40434;DHT22;26146;51.114;5.654;2023-03-23T07:42:34;14.90;99.90
40434;DHT22;26146;51.114;5.654;2023-03-23T07:46:35;15.00;99.90
40434;DHT22;26146;51.114;5.654;2023-03-23T07:50:36;15.00;99.90
40434;DHT22;26146;51.114;5.654;2023-03-23T07:54:38;15.20;99.90
40434;DHT22;26146;51.114;5.654;2023-03-23T07:58:39;15.30;99.90
40434;DHT22;26146;51.114;5.654;2023-03-23T08:02:40;15.40;99.90
40434;DHT22;26146;51.114;5.654;2023-03-23T08:06:42;15.70;99.90
40434;DHT22;26146;51.114;5.654;2023-03-23T08:10:43;15.70;99.90
40434;DHT22;26146;51.114;5.654;2023-03-23T08:14:44;15.70;99.90
40434;DHT22;26146;51.114;5.654;2023-03-23T08:18:45;15.90;99.90
40434;DHT22;26146;51.114;5.654;2023-03-23T08:22:52;15.80;99.90
40434;DHT22;26146;51.114;5.654;2023-03-23T08:26:54;15.60;99.90
40434;DHT22;26146;51.114;5.654;2023-03-23T08:30:55;15.40;99.90
40434;DHT22;26146;51.114;5.654;2023-03-23T08:34:56;14.50;99.90
40434;DHT22;26146;51.114;5.654;2023-03-23T08:38:57;13.60;99.90
40434;DHT22;26146;51.114;5.654;2023-03-23T08:42:59;13.20;99.90
40434;DHT22;26146;51.114;5.654;2023-03-23T08:47:00;12.70;99.90
40434;DHT22;26146;51.114;5.654;2023-03-23T08:51:06;12.20;99.90
40434;DHT22;26146;51.114;5.654;2023-03-23T08:55:07;12.00;99.90
40434;DHT22;26146;51.114;5.654;2023-03-23T08:59:09;11.70;99.90
40434;DHT22;26146;51.114;5.654;2023-03-23T09:03:10;11.50;99.90
40434;DHT22;26146;51.114;5.654;2023-03-23T09:07:13;11.80;99.90
40434;DHT22;26146;51.114;5.654;2023-03-23T09:11:15;11.60;99.90
40434;DHT22;26146;51.114;5.654;2023-03-23T09:15:17;11.70;99.90
40434;DHT22;26146;51.114;5.654;2023-03-23T09:19:18;11.70;99.90
40434;DHT22;26146;51.114;5.654;2023-03-23T09:23:21;11.60;99.90
40434;DHT22;26146;51.114;5.654;2023-03-23T09:27:24;11.60;99.90
40434;DHT22;26146;51.114;5.654;2023-03-23T09:31:26;12.10;99.90
40434;DHT22;26146;51.114;5.654;2023-03-23T09:35:28;12.30;99.90
40434;DHT22;26146;51.114;5.654;2023-03-23T09:39:33;12.40;99.90
40434;DHT22;26146;51.114;5.654;2023-03-23T09:52:52;12.80;99.90
40434;DHT22;26146;51.114;5.654;2023-03-23T09:56:55;12.90;99.90
40434;DHT22;26146;51.114;5.654;2023-03-23T10:01:07;13.30;99.90
40434;DHT22;26146;51.114;5.654;2023-03-23T10:05:18;13.50;99.90
40434;DHT22;26146;51.114;5.654;2023-03-23T10:09:20;13.50;99.90
40434;DHT22;26146;51.114;5.654;2023-03-23T10:21:45;13.70;99.90
40434;DHT22;26146;51.114;5.654;2023-03-23T10:38:53;14.20;99.90
40434;DHT22;26146;51.114;5.654;2023-03-23T10:42:57;14.00;99.90
40434;DHT22;26146;51.114;5.654;2023-03-23T10:47:09;14.20;99.90
40434;DHT22;26146;51.114;5.654;2023-03-23T10:51:12;14.50;99.90
40434;DHT22;26146;51.114;5.654;2023-03-23T10:55:17;14.80;99.90
40434;DHT22;26146;51.114;5.654;2023-03-23T10:59:19;14.80;99.90
40434;DHT22;26146;51.114;5.654;2023-03-23T11:07:56;15.40;99.90
40434;DHT22;26146;51.114;5.654;2023-03-23T11:12:00;15.60;99.90
40434;DHT22;26146;51.114;5.654;2023-03-23T11:16:03;16.00;99.90
40434;DHT22;26146;51.114;5.654;2023-03-23T11:20:11;16.30;99.90
40434;DHT22;26146;51.114;5.654;2023-03-23T11:24:13;16.40;99.90
40434;DHT22;26146;51.114;5.654;2023-03-23T11:28:15;16.80;99.90
40434;DHT22;26146;51.114;5.654;2023-03-23T11:32:18;16.90;99.90
40434;DHT22;26146;51.114;5.654;2023-03-23T11:36:40;16.80;99.90
40434;DHT22;26146;51.114;5.654;2023-03-23T11:40:49;16.90;99.90
40434;DHT22;26146;51.114;5.654;2023-03-23T11:44:51;16.80;99.90
40434;DHT22;26146;51.114;5.654;2023-03-23T11:57:25;17.00;99.90
40434;DHT22;26146;51.114;5.654;2023-03-23T12:10:25;17.10;99.90
40434;DHT22;26146;51.114;5.654;2023-03-23T12:19:05;16.30;99.90
40434;DHT22;26146;51.114;5.654;2023-03-23T12:48:49;16.40;99.90
40434;DHT22;26146;51.114;5.654;2023-03-23T12:57:57;17.20;99.90
40434;DHT22;26146;51.114;5.654;2023-03-23T13:02:32;17.30;99.90
40434;DHT22;26146;51.114;5.654;2023-03-23T13:06:43;17.40;99.90
40434;DHT22;26146;51.114;5.654;2023-03-23T13:10:49;17.40;99.90
40434;DHT22;26146;51.114;5.654;2023-03-23T13:23:25;17.70;99.90
40434;DHT22;26146;51.114;5.654;2023-03-23T13:27:28;18.10;99.90
40434;DHT22;26146;51.114;5.654;2023-03-23T13:31:39;18.00;99.90
40434;DHT22;26146;51.114;5.654;2023-03-23T13:35:41;17.90;99.90
40434;DHT22;26146;51.114;5.654;2023-03-23T13:43:49;17.80;99.90
40434;DHT22;26146;51.114;5.654;2023-03-23T13:48:21;17.90;99.90
40434;DHT22;26146;51.114;5.654;2023-03-23T14:01:18;17.70;99.90
40434;DHT22;26146;51.114;5.654;2023-03-23T14:17:41;17.60;99.90
40434;DHT22;26146;51.114;5.654;2023-03-23T14:21:54;17.50;99.90
40434;DHT22;26146;51.114;5.654;2023-03-23T14:25:58;17.30;99.90
40434;DHT22;26146;51.114;5.654;2023-03-23T14:30:09;17.00;99.90
40434;DHT22;26146;51.114;5.654;2023-03-23T14:34:16;16.80;99.90
40434;DHT22;26146;51.114;5.654;2023-03-23T14:38:23;16.70;99.90
40434;DHT22;26146;51.114;5.654;2023-03-23T14:42:34;16.70;99.90
40434;DHT22;26146;51.114;5.654;2023-03-23T14:46:36;16.70;99.90
40434;DHT22;26146;51.114;5.654;2023-03-23T14:50:40;16.70;99.90
40434;DHT22;26146;51.114;5.654;2023-03-23T14:54:45;16.70;99.90
40434;DHT22;26146;51.114;5.654;2023-03-23T14:58:48;16.90;99.90
40434;DHT22;26146;51.114;5.654;2023-03-23T15:02:52;16.90;99.90
40434;DHT22;26146;51.114;5.654;2023-03-23T15:06:58;16.80;99.90
40434;DHT22;26146;51.114;5.654;2023-03-23T15:15:34;17.10;99.90
40434;DHT22;26146;51.114;5.654;2023-03-23T15:19:40;17.20;99.90
40434;DHT22;26146;51.114;5.654;2023-03-23T15:23:42;17.30;99.90
40434;DHT22;26146;51.114;5.654;2023-03-23T15:28:47;17.40;99.90
40434;DHT22;26146;51.114;5.654;2023-03-23T15:32:31;17.50;99.90
40434;DHT22;26146;51.114;5.654;2023-03-23T15:36:40;17.60;99.90
40434;DHT22;26146;51.114;5.654;2023-03-23T15:40:44;17.70;99.90
40434;DHT22;26146;51.114;5.654;2023-03-23T15:44:55;17.60;99.90
40434;DHT22;26146;51.114;5.654;2023-03-23T15:53:13;17.20;99.90
40434;DHT22;26146;51.114;5.654;2023-03-23T15:57:16;17.00;99.90
40434;DHT22;26146;51.114;5.654;2023-03-23T16:01:20;16.90;99.90
40434;DHT22;26146;51.114;5.654;2023-03-23T16:05:22;16.90;99.90
40434;DHT22;26146;51.114;5.654;2023-03-23T16:09:24;16.40;99.90
40434;DHT22;26146;51.114;5.654;2023-03-23T16:13:27;16.40;99.90
40434;DHT22;26146;51.114;5.654;2023-03-23T16:17:28;16.40;99.90
40434;DHT22;26146;51.114;5.654;2023-03-23T16:21:32;16.40;99.90
40434;DHT22;26146;51.114;5.654;2023-03-23T16:25:35;16.30;99.90
40434;DHT22;26146;51.114;5.654;2023-03-23T16:29:36;16.30;99.90
40434;DHT22;26146;51.114;5.654;2023-03-23T16:33:37;16.30;99.90
40434;DHT22;26146;51.114;5.654;2023-03-23T16:37:38;16.40;99.90
40434;DHT22;26146;51.114;5.654;2023-03-23T16:41:39;16.60;99.90
40434;DHT22;26146;51.114;5.654;2023-03-23T16:45:42;16.70;99.90
40434;DHT22;26146;51.114;5.654;2023-03-23T16:49:44;16.70;99.90
40434;DHT22;26146;51.114;5.654;2023-03-23T16:53:45;16.80;99.90
40434;DHT22;26146;51.114;5.654;2023-03-23T16:57:48;16.60;99.90
40434;DHT22;26146;51.114;5.654;2023-03-23T17:01:49;16.70;99.90
40434;DHT22;26146;51.114;5.654;2023-03-23T17:05:50;16.60;99.90
40434;DHT22;26146;51.114;5.654;2023-03-23T17:09:52;16.50;99.90
40434;DHT22;26146;51.114;5.654;2023-03-23T17:13:53;16.40;99.90
40434;DHT22;26146;51.114;5.654;2023-03-23T17:17:53;16.60;99.90
40434;DHT22;26146;51.114;5.654;2023-03-23T17:21:57;16.60;99.90
40434;DHT22;26146;51.114;5.654;2023-03-23T17:25:58;16.40;99.90
40434;DHT22;26146;51.114;5.654;2023-03-23T17:29:59;16.40;99.90
40434;DHT22;26146;51.114;5.654;2023-03-23T17:34:00;16.30;99.90
40434;DHT22;26146;51.114;5.654;2023-03-23T17:38:01;16.20;99.90
40434;DHT22;26146;51.114;5.654;2023-03-23T17:42:05;16.10;99.90
40434;DHT22;26146;51.114;5.654;2023-03-23T17:46:07;15.90;99.90
40434;DHT22;26146;51.114;5.654;2023-03-23T17:50:08;16.00;99.90
40434;DHT22;26146;51.114;5.654;2023-03-23T17:54:10;16.00;99.90
40434;DHT22;26146;51.114;5.654;2023-03-23T17:58:11;16.00;99.90
40434;DHT22;26146;51.114;5.654;2023-03-23T18:02:12;15.80;99.90
40434;DHT22;26146;51.114;5.654;2023-03-23T18:06:13;15.70;99.90
40434;DHT22;26146;51.114;5.654;2023-03-23T18:10:15;15.60;99.90
40434;DHT22;26146;51.114;5.654;2023-03-23T18:14:16;15.50;99.90
40434;DHT22;26146;51.114;5.654;2023-03-23T18:18:17;15.30;99.90
40434;DHT22;26146;51.114;5.654;2023-03-23T18:22:21;15.20;99.90
40434;DHT22;26146;51.114;5.654;2023-03-23T18:26:22;15.30;99.90
40434;DHT22;26146;51.114;5.654;2023-03-23T18:30:23;15.40;99.90
40434;DHT22;26146;51.114;5.654;2023-03-23T18:34:26;15.40;99.90
40434;DHT22;26146;51.114;5.654;2023-03-23T18:38:28;15.40;99.90
40434;DHT22;26146;51.114;5.654;2023-03-23T18:42:29;15.50;99.90
40434;DHT22;26146;51.114;5.654;2023-03-23T18:46:30;15.40;99.90
40434;DHT22;26146;51.114;5.654;2023-03-23T18:50:32;15.40;99.90
40434;DHT22;26146;51.114;5.654;2023-03-23T18:54:33;15.30;99.90
40434;DHT22;26146;51.114;5.654;2023-03-23T18:58:35;15.20;99.90
40434;DHT22;26146;51.114;5.654;2023-03-23T19:02:36;15.20;99.90
40434;DHT22;26146;51.114;5.654;2023-03-23T19:06:39;15.20;99.90
40434;DHT22;26146;51.114;5.654;2023-03-23T19:10:41;15.20;99.90
40434;DHT22;26146;51.114;5.654;2023-03-23T19:14:42;15.10;99.90
40434;DHT22;26146;51.114;5.654;2023-03-23T19:18:46;15.00;99.90
40434;DHT22;26146;51.114;5.654;2023-03-23T19:22:49;15.00;99.90
40434;DHT22;26146;51.114;5.654;2023-03-23T19:26:53;15.10;99.90
40434;DHT22;26146;51.114;5.654;2023-03-23T19:30:55;15.10;99.90
40434;DHT22;26146;51.114;5.654;2023-03-23T19:34:57;15.10;99.90
40434;DHT22;26146;51.114;5.654;2023-03-23T19:38:58;15.10;99.90
40434;DHT22;26146;51.114;5.654;2023-03-23T19:42:59;15.20;99.90
40434;DHT22;26146;51.114;5.654;2023-03-23T19:47:00;15.30;99.90
40434;DHT22;26146;51.114;5.654;2023-03-23T19:51:01;15.20;99.90
40434;DHT22;26146;51.114;5.654;2023-03-23T19:55:03;15.30;99.90
40434;DHT22;26146;51.114;5.654;2023-03-23T19:59:04;15.40;99.90
40434;DHT22;26146;51.114;5.654;2023-03-23T20:03:07;15.20;99.90
40434;DHT22;26146;51.114;5.654;2023-03-23T20:07:08;15.20;99.90
40434;DHT22;26146;51.114;5.654;2023-03-23T20:11:14;15.10;99.90
40434;DHT22;26146;51.114;5.654;2023-03-23T20:15:19;15.20;99.90
40434;DHT22;26146;51.114;5.654;2023-03-23T20:19:20;15.30;99.90
40434;DHT22;26146;51.114;5.654;2023-03-23T20:23:21;15.30;99.90
40434;DHT22;26146;51.114;5.654;2023-03-23T20:27:22;15.20;99.90
40434;DHT22;26146;51.114;5.654;2023-03-23T20:31:26;15.10;99.90
40434;DHT22;26146;51.114;5.654;2023-03-23T20:35:27;15.00;99.90
40434;DHT22;26146;51.114;5.654;2023-03-23T20:39:32;15.00;99.90
40434;DHT22;26146;51.114;5.654;2023-03-23T20:43:34;15.10;99.90
40434;DHT22;26146;51.114;5.654;2023-03-23T20:47:36;15.00;99.90
40434;DHT22;26146;51.114;5.654;2023-03-23T20:51:38;15.00;99.90
40434;DHT22;26146;51.114;5.654;2023-03-23T20:55:39;14.80;99.90
40434;DHT22;26146;51.114;5.654;2023-03-23T20:59:45;14.80;99.90
40434;DHT22;26146;51.114;5.654;2023-03-23T21:03:48;14.70;99.90
40434;DHT22;26146;51.114;5.654;2023-03-23T21:07:53;14.80;99.90
40434;DHT22;26146;51.114;5.654;2023-03-23T21:12:00;14.70;99.90
40434;DHT22;26146;51.114;5.654;2023-03-23T21:16:04;14.50;99.90
40434;DHT22;26146;51.114;5.654;2023-03-23T21:20:06;14.60;99.90
40434;DHT22;26146;51.114;5.654;2023-03-23T21:24:09;14.50;99.90
40434;DHT22;26146;51.114;5.654;2023-03-23T21:28:11;14.50;99.90
40434;DHT22;26146;51.114;5.654;2023-03-23T21:32:12;14.50;99.90
40434;DHT22;26146;51.114;5.654;2023-03-23T21:36:13;14.40;99.90
40434;DHT22;26146;51.114;5.654;2023-03-23T21:40:15;14.30;99.90
40434;DHT22;26146;51.114;5.654;2023-03-23T21:44:17;14.20;99.90
40434;DHT22;26146;51.114;5.654;2023-03-23T21:48:18;14.20;99.90
40434;DHT22;26146;51.114;5.654;2023-03-23T21:52:22;14.10;99.90
40434;DHT22;26146;51.114;5.654;2023-03-23T21:56:25;14.10;99.90
40434;DHT22;26146;51.114;5.654;2023-03-23T22:00:27;14.10;99.90
40434;DHT22;26146;51.114;5.654;2023-03-23T22:04:29;14.00;99.90
40434;DHT22;26146;51.114;5.654;2023-03-23T22:08:30;14.00;99.90
40434;DHT22;26146;51.114;5.654;2023-03-23T22:12:34;13.70;99.90
40434;DHT22;26146;51.114;5.654;2023-03-23T22:16:36;13.70;99.90
40434;DHT22;26146;51.114;5.654;2023-03-23T22:20:37;13.70;99.90
40434;DHT22;26146;51.114;5.654;2023-03-23T22:24:40;13.70;99.90
40434;DHT22;26146;51.114;5.654;2023-03-23T22:28:44;13.60;99.90
40434;DHT22;26146;51.114;5.654;2023-03-23T22:32:46;13.70;99.90
40434;DHT22;26146;51.114;5.654;2023-03-23T22:36:49;13.60;99.90
40434;DHT22;26146;51.114;5.654;2023-03-23T22:40:58;13.60;99.90
40434;DHT22;26146;51.114;5.654;2023-03-23T22:45:01;13.60;99.90
40434;DHT22;26146;51.114;5.654;2023-03-23T22:49:02;13.60;99.90
40434;DHT22;26146;51.114;5.654;2023-03-23T22:53:03;13.70;99.90
40434;DHT22;26146;51.114;5.654;2023-03-23T22:57:06;13.60;99.90
40434;DHT22;26146;51.114;5.654;2023-03-23T23:01:13;13.60;99.90
40434;DHT22;26146;51.114;5.654;2023-03-23T23:05:16;13.50;99.90
40434;DHT22;26146;51.114;5.654;2023-03-23T23:09:17;13.60;99.90
40434;DHT22;26146;51.114;5.654;2023-03-23T23:13:19;13.60;99.90
40434;DHT22;26146;51.114;5.654;2023-03-23T23:17:21;13.60;99.90
40434;DHT22;26146;51.114;5.654;2023-03-23T23:21:23;13.50;99.90
40434;DHT22;26146;51.114;5.654;2023-03-23T23:25:27;13.60;99.90
40434;DHT22;26146;51.114;5.654;2023-03-23T23:29:28;13.60;99.90
40434;DHT22;26146;51.114;5.654;2023-03-23T23:33:29;13.60;99.90
40434;DHT22;26146;51.114;5.654;2023-03-23T23:37:30;13.70;99.90
40434;DHT22;26146;51.114;5.654;2023-03-23T23:41:32;13.70;99.90
40434;DHT22;26146;51.114;5.654;2023-03-23T23:45:33;13.60;99.90
40434;DHT22;26146;51.114;5.654;2023-03-23T23:49:35;13.70;99.90
40434;DHT22;26146;51.114;5.654;2023-03-23T23:53:38;13.80;99.90
40434;DHT22;26146;51.114;5.654;2023-03-23T23:57:43;13.70;99.90
